Aérodrome :
LOGIN :

S'inscrire | Disclaimer

   EN    FR    IT 

 










Légende :    VFR   VFR Marginal   IFR   IFR Intensif   IFR Très Intensif
Visi : 
Plafond : 
>= 8 km
>= 3000ft
5 à 8 km
1000 à 3000 ft
1500m à 5 km
500 à 1000 ft
800 à 1500m
200 à 500 ft
< 800m
< 200 ft
Symboles :   Orages  Brouillard  Fortes neiges  Fortes précipitations  Vent > 20 kt
SIGMETs :   Divers  Orages  Givrage  Turbulence  Onde Orograph.  Cendres Volcan.






- Altitude de l'aérodrome : 1475 ft


LSZC - Buochs Stans

DERNIER METAR :
  • 271420Z VRB02KT 4200 -SN FEW004 SCT013 BKN015 01/M00 Q0999

METARs EXPIRÉS :
  • 271350Z AUTO VRB03KT 6000 -SN FEW012 BKN016 OVC018 01/M00 Q0999
  • 271320Z VRB02KT 3000 -SN BKN020 01/M01 Q0999
  • 271250Z VRB03KT 3500 -SN BKN022 01/M01 Q1000 RERASN
  • 271220Z 20005KT 9999 -SN BKN025 03/M02 Q1001
  • 271150Z AUTO 22004KT 170V250 9999 FEW034 SCT041 03/M03 Q1001

TAF AMD TAF LSZC
Valide du 27 à 12h jusqu'au 27 à 21h UTC


271252Z 2712/2721 20005KT 9999 -SN BKN025
TEMPO 2712/2715 1200 SN VV006
PROB30 2715/2721 2500 RASN BKN010
TEMPO 2716/2718 07015G37KT



MET'MAP, la Météo Aéronautique d'un coup d'oeil ! - Copyright ORBIFLY Décembre 2007 - Disclaimer

ORBIFLY MET'MAP TEAM :

Programmation & Développement : Alexandra Zaïnal
Sur une idée originale de : Baudouin d'Aumeries
Assistance à la programmation : Marc-Olivier Méhu
Soutien technique & logistique : Manuel Goepfert

Contact : metmap@orbifly.com




SOURCES & CREDITS :

   NOAA